Time;durP1;ratioP1;P1;durP2;ratioP2;P2;SDS_P1;SDS_P2;PMS_P1;PMS_P2;Temp;Humidity;BMP_temperature;BMP_pressure;BME280_temperature;BME280_humidity;BME280_pressure;Samples;Min_cycle;Max_cycle;Signal;HPM_P1;HPM_P2
2024/01/01 00:00:37;;;;;;;339.63;118.15;;;;;;;;;;6292795;28;20049;-61
2024/01/01 00:03:58;;;;;;;389.98;138.10;;;;;;;;;;6290934;28;20064;-62
2024/01/01 00:06:58;;;;;;;418.80;144.85;;;;;;;;;;6291738;28;20061;-65
2024/01/01 00:09:59;;;;;;;352.17;130.38;;;;;;;;;;6292580;28;20156;-61
2024/01/01 00:12:59;;;;;;;474.27;178.73;;;;;;;;;;6290562;28;20040;-62
2024/01/01 00:16:00;;;;;;;445.40;161.05;;;;;;;;;;6291836;28;20040;-62
2024/01/01 00:19:01;;;;;;;510.75;188.25;;;;;;;;;;6290877;28;20103;-61
2024/01/01 00:22:02;;;;;;;509.88;189.07;;;;;;;;;;6290039;28;20673;-62
2024/01/01 00:25:04;;;;;;;564.85;223.48;;;;;;;;;;6276573;28;20072;-61
2024/01/01 00:28:08;;;;;;;573.58;231.68;;;;;;;;;;6291014;28;20097;-62
2024/01/01 00:31:09;;;;;;;567.88;221.23;;;;;;;;;;6289014;28;20048;-61
2024/01/01 00:34:10;;;;;;;530.97;206.63;;;;;;;;;;6287727;28;20049;-62
2024/01/01 00:37:10;;;;;;;518.88;197.65;;;;;;;;;;6289537;28;20041;-62
2024/01/01 00:40:11;;;;;;;530.25;206.68;;;;;;;;;;6290705;28;20143;-62
2024/01/01 00:43:12;;;;;;;499.75;197.05;;;;;;;;;;6287739;28;20458;-62
2024/01/01 00:46:13;;;;;;;462.02;164.80;;;;;;;;;;6288191;28;20053;-63
2024/01/01 00:49:13;;;;;;;409.92;142.68;;;;;;;;;;6290316;28;20126;-62
2024/01/01 00:52:15;;;;;;;391.52;133.73;;;;;;;;;;6289246;28;20057;-63
2024/01/01 00:55:15;;;;;;;415.63;149.53;;;;;;;;;;6285343;28;20062;-61
2024/01/01 00:58:16;;;;;;;383.60;134.93;;;;;;;;;;6291368;28;20045;-62
2024/01/01 01:01:17;;;;;;;338.75;120.93;;;;;;;;;;6288422;28;20125;-62
2024/01/01 01:04:18;;;;;;;352.25;125.57;;;;;;;;;;6288144;28;20051;-65
2024/01/01 01:07:18;;;;;;;447.13;151.23;;;;;;;;;;6288115;28;20113;-61
2024/01/01 01:10:19;;;;;;;461.17;162.32;;;;;;;;;;6290016;28;20053;-63
2024/01/01 01:13:21;;;;;;;412.48;135.98;;;;;;;;;;6286878;28;20048;-62
2024/01/01 01:16:23;;;;;;;;;;;;;;;;;;6288575;28;20790;-62
2024/01/01 01:19:23;;;;;;;464.42;158.38;;;;;;;;;;6289775;28;19928;-64
2024/01/01 01:22:24;;;;;;;445.77;151.02;;;;;;;;;;6288337;28;20055;-62
2024/01/01 01:25:24;;;;;;;431.13;144.55;;;;;;;;;;6288622;28;20127;-62
2024/01/01 01:28:25;;;;;;;444.60;144.88;;;;;;;;;;6288258;28;20041;-62
2024/01/01 01:31:26;;;;;;;440.85;145.75;;;;;;;;;;6288209;28;20044;-62
2024/01/01 01:34:27;;;;;;;449.60;149.25;;;;;;;;;;6285770;28;20407;-62
2024/01/01 01:37:28;;;;;;;434.00;147.57;;;;;;;;;;6288807;28;20052;-62
2024/01/01 01:40:29;;;;;;;425.98;140.30;;;;;;;;;;6288661;28;20135;-62
2024/01/01 01:43:29;;;;;;;396.88;137.43;;;;;;;;;;6287056;28;20048;-62
2024/01/01 01:46:32;;;;;;;380.08;132.25;;;;;;;;;;6287383;28;20045;-62
2024/01/01 01:49:33;;;;;;;380.05;133.63;;;;;;;;;;6288338;28;20052;-62
2024/01/01 01:52:35;;;;;;;373.55;132.63;;;;;;;;;;6288453;28;20551;-62
2024/01/01 01:55:36;;;;;;;373.45;126.68;;;;;;;;;;6288242;28;20479;-62
2024/01/01 01:58:37;;;;;;;358.30;126.72;;;;;;;;;;6293251;28;20051;-62
2024/01/01 02:01:39;;;;;;;355.55;121.05;;;;;;;;;;6293321;28;20092;-62
2024/01/01 02:04:40;;;;;;;368.23;123.60;;;;;;;;;;6289161;28;20075;-62
2024/01/01 02:07:41;;;;;;;375.63;127.68;;;;;;;;;;6294003;28;20056;-62
2024/01/01 02:10:43;;;;;;;397.35;136.75;;;;;;;;;;6295564;28;20097;-61
2024/01/01 02:13:44;;;;;;;381.60;133.43;;;;;;;;;;6291227;28;20060;-63
2024/01/01 02:16:45;;;;;;;410.98;139.82;;;;;;;;;;6293301;28;20045;-61
2024/01/01 02:19:46;;;;;;;413.17;141.88;;;;;;;;;;6293970;28;20052;-62
2024/01/01 02:22:47;;;;;;;418.35;143.20;;;;;;;;;;6291968;28;20080;-63
2024/01/01 02:25:48;;;;;;;400.27;137.82;;;;;;;;;;6292644;28;20452;-62
2024/01/01 02:28:48;;;;;;;410.95;137.88;;;;;;;;;;6293712;28;20074;-61
2024/01/01 02:31:49;;;;;;;398.90;136.70;;;;;;;;;;6293821;28;20045;-62
2024/01/01 02:34:50;;;;;;;425.90;141.60;;;;;;;;;;6290443;28;20046;-62
2024/01/01 02:37:50;;;;;;;397.25;137.90;;;;;;;;;;6294840;28;20442;-62
2024/01/01 02:40:51;;;;;;;409.40;139.52;;;;;;;;;;6291398;28;20072;-62
2024/01/01 02:43:52;;;;;;;410.27;138.75;;;;;;;;;;6290707;28;20052;-62
2024/01/01 02:46:53;;;;;;;406.02;140.07;;;;;;;;;;6292601;28;20041;-62
2024/01/01 02:49:53;;;;;;;426.98;138.45;;;;;;;;;;6291847;28;20060;-61
2024/01/01 02:52:54;;;;;;;417.45;142.05;;;;;;;;;;6291164;28;20048;-61
2024/01/01 02:55:54;;;;;;;428.98;142.18;;;;;;;;;;6289756;28;20430;-62
2024/01/01 02:58:55;;;;;;;425.73;139.50;;;;;;;;;;6292407;28;20064;-62
2024/01/01 03:01:56;;;;;;;410.23;141.68;;;;;;;;;;6291821;28;20051;-62
2024/01/01 03:04:57;;;;;;;377.40;129.02;;;;;;;;;;6290813;28;20511;-63
2024/01/01 03:08:16;;;;;;;387.67;132.63;;;;;;;;;;6292433;28;20052;-62
2024/01/01 03:11:17;;;;;;;364.20;120.47;;;;;;;;;;6292953;28;20063;-62
2024/01/01 03:14:17;;;;;;;347.33;118.60;;;;;;;;;;6291533;28;20446;-62
2024/01/01 03:17:18;;;;;;;276.80;93.88;;;;;;;;;;6291984;28;20059;-62
2024/01/01 03:20:19;;;;;;;276.25;92.28;;;;;;;;;;6291497;28;20049;-61
2024/01/01 03:23:20;;;;;;;277.52;95.65;;;;;;;;;;6291890;28;20053;-62
2024/01/01 03:26:22;;;;;;;215.27;68.63;;;;;;;;;;6289516;28;20057;-62
2024/01/01 03:29:23;;;;;;;219.85;73.15;;;;;;;;;;6291673;28;20132;-63
2024/01/01 03:32:23;;;;;;;190.13;60.40;;;;;;;;;;6291886;28;20048;-62
2024/01/01 03:35:24;;;;;;;201.45;62.08;;;;;;;;;;6290613;28;20048;-62
2024/01/01 03:38:25;;;;;;;205.48;66.70;;;;;;;;;;6289982;28;20154;-64
2024/01/01 03:41:26;;;;;;;203.07;63.80;;;;;;;;;;6291377;28;20499;-61
2024/01/01 03:44:45;;;;;;;201.93;64.70;;;;;;;;;;6290759;28;20048;-62
2024/01/01 03:47:46;;;;;;;210.45;64.68;;;;;;;;;;6290927;28;20126;-61
2024/01/01 03:50:46;;;;;;;196.52;62.05;;;;;;;;;;6290470;28;20049;-61
2024/01/01 03:53:47;;;;;;;178.35;57.25;;;;;;;;;;6290143;28;20129;-62
2024/01/01 03:56:48;;;;;;;155.55;49.30;;;;;;;;;;6289279;28;20403;-62
2024/01/01 03:59:48;;;;;;;146.98;47.05;;;;;;;;;;6291536;28;20114;-62
2024/01/01 04:02:49;;;;;;;133.10;44.10;;;;;;;;;;6291028;28;20514;-62
2024/01/01 04:05:50;;;;;;;141.00;46.53;;;;;;;;;;6289361;28;20048;-62
2024/01/01 04:08:51;;;;;;;140.05;45.75;;;;;;;;;;6291239;28;20068;-62
2024/01/01 04:11:51;;;;;;;150.45;48.13;;;;;;;;;;6290949;28;20101;-62
2024/01/01 04:14:52;;;;;;;141.23;47.80;;;;;;;;;;6288682;28;20051;-62
2024/01/01 04:17:54;;;;;;;143.30;47.10;;;;;;;;;;6288607;28;20041;-62
2024/01/01 04:20:54;;;;;;;142.40;47.10;;;;;;;;;;6289455;28;20055;-61
2024/01/01 04:23:58;;;;;;;146.23;48.00;;;;;;;;;;6290867;28;20403;-62
2024/01/01 04:26:58;;;;;;;149.30;47.50;;;;;;;;;;6289172;28;20495;-62
2024/01/01 04:29:59;;;;;;;146.70;47.95;;;;;;;;;;6289851;28;20060;-62
2024/01/01 04:33:00;;;;;;;143.70;45.88;;;;;;;;;;6291959;28;20048;-62
2024/01/01 04:36:00;;;;;;;160.18;49.50;;;;;;;;;;6289462;28;20043;-62
2024/01/01 04:39:03;;;;;;;143.10;45.75;;;;;;;;;;6289692;28;20052;-62
2024/01/01 04:42:22;;;;;;;152.38;46.22;;;;;;;;;;6290368;28;20048;-62
2024/01/01 04:45:23;;;;;;;147.45;44.88;;;;;;;;;;6288776;28;20106;-62
2024/01/01 04:48:24;;;;;;;142.23;43.25;;;;;;;;;;6287982;28;20059;-62
2024/01/01 04:51:24;;;;;;;138.60;40.45;;;;;;;;;;6290164;28;20040;-62
2024/01/01 04:54:25;;;;;;;137.68;43.40;;;;;;;;;;6289608;28;20094;-62
2024/01/01 04:57:26;;;;;;;129.07;43.33;;;;;;;;;;6287668;28;20053;-62
2024/01/01 05:00:27;;;;;;;147.32;47.22;;;;;;;;;;6288722;28;20044;-62
2024/01/01 05:03:28;;;;;;;149.23;48.60;;;;;;;;;;6289625;28;20525;-62
2024/01/01 05:06:28;;;;;;;145.45;45.58;;;;;;;;;;6288419;28;20056;-62
2024/01/01 05:09:29;;;;;;;142.48;46.60;;;;;;;;;;6289374;28;20049;-62
2024/01/01 05:12:30;;;;;;;133.05;41.15;;;;;;;;;;6288244;28;20059;-63
2024/01/01 05:15:31;;;;;;;118.65;40.17;;;;;;;;;;6270189;28;20056;-62
2024/01/01 05:18:31;;;;;;;105.18;36.00;;;;;;;;;;6288205;28;20045;-62
2024/01/01 05:21:32;;;;;;;99.35;32.67;;;;;;;;;;6288982;28;20044;-62
2024/01/01 05:24:35;;;;;;;98.70;30.60;;;;;;;;;;6289924;28;20044;-62
2024/01/01 05:27:36;;;;;;;89.82;29.00;;;;;;;;;;6285407;28;20056;-62
2024/01/01 05:30:37;;;;;;;89.13;28.27;;;;;;;;;;6289133;28;20072;-62
2024/01/01 05:33:38;;;;;;;80.05;25.60;;;;;;;;;;6289699;28;20487;-62
2024/01/01 05:36:38;;;;;;;82.00;26.70;;;;;;;;;;6287874;28;20040;-62
2024/01/01 05:39:39;;;;;;;86.75;28.38;;;;;;;;;;6287906;28;20380;-62
2024/01/01 05:42:58;;;;;;;83.05;27.27;;;;;;;;;;6288346;28;20045;-62
2024/01/01 05:45:59;;;;;;;77.53;28.48;;;;;;;;;;6286678;28;20143;-62
2024/01/01 05:48:59;;;;;;;85.05;28.25;;;;;;;;;;6285681;28;20051;-62
2024/01/01 05:52:00;;;;;;;85.55;26.02;;;;;;;;;;6289390;28;20064;-62
2024/01/01 05:55:01;;;;;;;73.18;24.65;;;;;;;;;;6289016;28;20490;-62
2024/01/01 05:58:02;;;;;;;73.78;25.33;;;;;;;;;;6286160;28;20045;-62
2024/01/01 06:01:03;;;;;;;72.65;25.17;;;;;;;;;;6285733;28;20072;-62
2024/01/01 06:04:04;;;;;;;73.03;23.95;;;;;;;;;;6289159;28;20049;-62
2024/01/01 06:07:05;;;;;;;69.38;22.73;;;;;;;;;;6286704;28;20539;-62
2024/01/01 06:10:06;;;;;;;68.75;22.42;;;;;;;;;;6288107;28;20480;-62
2024/01/01 06:13:06;;;;;;;61.17;20.38;;;;;;;;;;6288838;28;20057;-62
2024/01/01 06:16:07;;;;;;;63.78;20.80;;;;;;;;;;6288546;28;20060;-62
2024/01/01 06:19:12;;;;;;;66.00;21.35;;;;;;;;;;6286842;28;20040;-62
2024/01/01 06:22:13;;;;;;;71.43;22.02;;;;;;;;;;6289242;28;20139;-62
2024/01/01 06:25:14;;;;;;;60.20;21.55;;;;;;;;;;6288661;28;20049;-62
2024/01/01 06:28:17;;;;;;;61.58;20.77;;;;;;;;;;6285966;28;20427;-62
2024/01/01 06:31:18;;;;;;;68.43;22.55;;;;;;;;;;6288844;28;20072;-62
2024/01/01 06:34:19;;;;;;;69.50;23.70;;;;;;;;;;6288818;28;20068;-62
2024/01/01 06:37:20;;;;;;;78.72;27.10;;;;;;;;;;6285779;28;20048;-62
2024/01/01 06:40:21;;;;;;;83.90;26.83;;;;;;;;;;6287731;28;20048;-62
2024/01/01 06:43:22;;;;;;;81.43;28.10;;;;;;;;;;6291523;28;20053;-63
2024/01/01 06:46:22;;;;;;;80.03;27.17;;;;;;;;;;6292370;28;20049;-62
2024/01/01 06:49:23;;;;;;;73.13;25.27;;;;;;;;;;6288876;28;20056;-63
2024/01/01 06:52:24;;;;;;;67.80;21.60;;;;;;;;;;6293326;28;20052;-64
2024/01/01 06:55:24;;;;;;;66.03;21.55;;;;;;;;;;6293456;28;20048;-62
2024/01/01 06:58:25;;;;;;;72.72;21.95;;;;;;;;;;6289702;28;20135;-62
2024/01/01 07:01:28;;;;;;;68.78;21.17;;;;;;;;;;6291303;28;20041;-62
2024/01/01 07:04:28;;;;;;;57.08;19.63;;;;;;;;;;6289818;28;20464;-62
2024/01/01 07:07:29;;;;;;;57.92;18.48;;;;;;;;;;6290474;28;20057;-62
2024/01/01 07:10:30;;;;;;;58.92;19.45;;;;;;;;;;6290295;28;20041;-64
2024/01/01 07:13:31;;;;;;;66.35;22.65;;;;;;;;;;6292470;28;20098;-63
2024/01/01 07:16:32;;;;;;;66.35;21.13;;;;;;;;;;6290605;28;20053;-62
2024/01/01 07:19:32;;;;;;;64.60;19.52;;;;;;;;;;6273700;28;20053;-63
2024/01/01 07:22:33;;;;;;;62.28;20.45;;;;;;;;;;6292690;28;20135;-63
2024/01/01 07:25:34;;;;;;;59.97;19.38;;;;;;;;;;6292757;28;20052;-62
2024/01/01 07:28:34;;;;;;;58.45;21.45;;;;;;;;;;6290977;28;20125;-62
2024/01/01 07:31:35;;;;;;;59.80;19.05;;;;;;;;;;6292093;28;20036;-62
2024/01/01 07:34:36;;;;;;;66.07;21.67;;;;;;;;;;6292190;28;20149;-62
2024/01/01 07:37:36;;;;;;;75.45;21.95;;;;;;;;;;6289224;28;20048;-62
2024/01/01 07:40:37;;;;;;;64.72;22.02;;;;;;;;;;6290199;28;20094;-62
2024/01/01 07:43:39;;;;;;;49.55;17.95;;;;;;;;;;6292788;28;20060;-62
2024/01/01 07:46:41;;;;;;;56.97;18.08;;;;;;;;;;6287640;28;20048;-61
2024/01/01 07:49:44;;;;;;;53.90;18.08;;;;;;;;;;6290273;28;20044;-62
2024/01/01 07:52:45;;;;;;;51.50;16.33;;;;;;;;;;6290618;28;20048;-62
2024/01/01 07:55:46;;;;;;;45.92;15.95;;;;;;;;;;6289202;28;20065;-61
2024/01/01 07:58:46;;;;;;;48.00;16.92;;;;;;;;;;6287932;28;20049;-64
2024/01/01 08:01:47;;;;;;;40.03;13.75;;;;;;;;;;6288917;28;20525;-62
2024/01/01 08:04:48;;;;;;;40.35;13.40;;;;;;;;;;6291200;28;20052;-63
2024/01/01 08:07:48;;;;;;;49.10;14.43;;;;;;;;;;6291277;28;20060;-63
2024/01/01 08:10:50;;;;;;;47.05;15.32;;;;;;;;;;6291113;28;20049;-63
2024/01/01 08:13:50;;;;;;;38.13;13.30;;;;;;;;;;6292247;28;20045;-62
2024/01/01 08:16:51;;;;;;;32.72;12.05;;;;;;;;;;6291820;28;20083;-62
2024/01/01 08:19:51;;;;;;;32.83;10.57;;;;;;;;;;6290647;28;20040;-62
2024/01/01 08:22:54;;;;;;;31.23;9.70;;;;;;;;;;6290921;28;20052;-64
2024/01/01 08:25:54;;;;;;;28.63;8.98;;;;;;;;;;6291794;28;20049;-62
2024/01/01 08:28:55;;;;;;;23.73;8.27;;;;;;;;;;6290583;28;20735;-62
2024/01/01 08:31:57;;;;;;;25.52;8.57;;;;;;;;;;6291467;28;20040;-61
2024/01/01 08:34:58;;;;;;;25.95;8.52;;;;;;;;;;6291871;28;20045;-61
2024/01/01 08:37:59;;;;;;;24.45;7.82;;;;;;;;;;6290853;28;20060;-61
2024/01/01 08:41:00;;;;;;;27.95;8.77;;;;;;;;;;6291015;28;20055;-61
2024/01/01 08:44:00;;;;;;;30.05;8.88;;;;;;;;;;6290421;28;20049;-61
2024/01/01 08:47:03;;;;;;;23.55;8.75;;;;;;;;;;6290643;28;20087;-61
2024/01/01 08:50:04;;;;;;;;;;;;;;;;;;6291044;28;20101;-63
2024/01/01 08:53:05;;;;;;;23.08;8.95;;;;;;;;;;6291300;28;19928;-62
2024/01/01 08:56:06;;;;;;;19.92;8.05;;;;;;;;;;6290240;28;20048;-64
2024/01/01 08:59:09;;;;;;;22.50;8.27;;;;;;;;;;6287146;28;20048;-63
2024/01/01 09:02:10;;;;;;;;;;;;;;;;;;6289256;28;20445;-64
2024/01/01 09:05:11;;;;;;;23.20;7.20;;;;;;;;;;6288486;28;19924;-64
2024/01/01 09:08:11;;;;;;;21.70;6.80;;;;;;;;;;6287864;28;20315;-64
2024/01/01 09:11:12;;;;;;;18.98;6.60;;;;;;;;;;6286946;28;20136;-63
2024/01/01 09:14:13;;;;;;;17.45;6.38;;;;;;;;;;6286789;28;20040;-61
2024/01/01 09:17:13;;;;;;;19.63;6.65;;;;;;;;;;6294593;28;20565;-61
2024/01/01 09:20:14;;;;;;;21.08;7.88;;;;;;;;;;6287833;28;20048;-62
2024/01/01 09:23:15;;;;;;;19.27;7.22;;;;;;;;;;6288174;28;20048;-60
2024/01/01 09:26:16;;;;;;;22.55;7.57;;;;;;;;;;6287203;28;20431;-62
2024/01/01 09:29:17;;;;;;;21.10;5.80;;;;;;;;;;6286720;28;20137;-60
2024/01/01 09:32:17;;;;;;;19.50;6.72;;;;;;;;;;6288374;28;20045;-60
2024/01/01 09:35:18;;;;;;;16.20;5.68;;;;;;;;;;6284366;28;20060;-61
2024/01/01 09:38:19;;;;;;;15.75;5.20;;;;;;;;;;6282558;28;20041;-61
2024/01/01 09:41:24;;;;;;;14.35;4.68;;;;;;;;;;6288583;28;20505;-60
2024/01/01 09:44:24;;;;;;;14.35;5.38;;;;;;;;;;6287623;28;20127;-60
2024/01/01 09:47:25;;;;;;;16.17;5.53;;;;;;;;;;6288831;28;20049;-61
2024/01/01 09:50:26;;;;;;;19.00;6.22;;;;;;;;;;6289881;28;20052;-60
2024/01/01 09:53:26;;;;;;;23.08;6.15;;;;;;;;;;6287026;28;20054;-60
2024/01/01 09:56:27;;;;;;;20.45;6.65;;;;;;;;;;6290073;28;20049;-60
2024/01/01 09:59:36;;;;;;;15.88;5.95;;;;;;;;;;6285851;28;20078;-60
2024/01/01 10:02:37;;;;;;;13.60;4.70;;;;;;;;;;6289366;28;20048;-60
2024/01/01 10:05:39;;;;;;;18.60;7.22;;;;;;;;;;6287841;28;20052;-60
2024/01/01 10:08:39;;;;;;;20.77;6.50;;;;;;;;;;6287937;28;20511;-60
2024/01/01 10:11:42;;;;;;;16.98;7.00;;;;;;;;;;6287857;28;20045;-61
2024/01/01 10:14:45;;;;;;;20.45;7.63;;;;;;;;;;6287181;28;20511;-61
2024/01/01 10:17:46;;;;;;;24.27;7.82;;;;;;;;;;6292254;28;20097;-60
2024/01/01 10:20:47;;;;;;;20.27;9.02;;;;;;;;;;6292806;28;20133;-60
2024/01/01 10:23:47;;;;;;;30.27;8.20;;;;;;;;;;6293738;28;20447;-61
2024/01/01 10:26:48;;;;;;;24.58;8.52;;;;;;;;;;6294167;28;20045;-61
2024/01/01 10:29:49;;;;;;;23.95;8.13;;;;;;;;;;6291939;28;20055;-60
2024/01/01 10:32:52;;;;;;;27.10;9.27;;;;;;;;;;6294122;28;20052;-62
2024/01/01 10:35:53;;;;;;;21.90;8.25;;;;;;;;;;6292135;28;20052;-60
2024/01/01 10:38:56;;;;;;;25.17;8.30;;;;;;;;;;6292086;28;20052;-61
2024/01/01 10:41:57;;;;;;;20.20;8.23;;;;;;;;;;6290413;28;20032;-61
2024/01/01 10:44:58;;;;;;;22.92;8.43;;;;;;;;;;6293916;28;20052;-60
2024/01/01 10:48:01;;;;;;;21.87;9.17;;;;;;;;;;6292581;28;20052;-60
2024/01/01 10:51:24;;;;;;;32.55;11.50;;;;;;;;;;6292022;28;20301;-60
2024/01/01 10:54:43;;;;;;;31.52;11.15;;;;;;;;;;6286795;28;20054;-64
2024/01/01 10:58:01;;;;;;;31.85;11.40;;;;;;;;;;6293257;28;20589;-61
2024/01/01 11:01:16;;;;;;;28.83;11.07;;;;;;;;;;6280969;28;20135;-61
2024/01/01 11:04:21;;;;;;;30.77;9.95;;;;;;;;;;6290932;28;20498;-61
2024/01/01 11:08:00;;;;;;;26.80;9.05;;;;;;;;;;6292493;28;20063;-62
2024/01/01 11:11:20;;;;;;;21.25;7.53;;;;;;;;;;6292910;28;20123;-62
2024/01/01 11:14:26;;;;;;;24.75;8.43;;;;;;;;;;6291997;28;20606;-62
2024/01/01 11:17:27;;;;;;;32.67;9.20;;;;;;;;;;6291436;28;20072;-61
2024/01/01 11:20:53;;;;;;;21.90;7.85;;;;;;;;;;6292301;28;20044;-60
2024/01/01 11:23:54;;;;;;;22.08;7.20;;;;;;;;;;6291040;28;20147;-60
2024/01/01 11:26:54;;;;;;;22.65;7.68;;;;;;;;;;6291621;28;20043;-61
2024/01/01 11:30:04;;;;;;;26.33;8.63;;;;;;;;;;6289773;28;20044;-61
2024/01/01 11:33:05;;;;;;;24.58;7.78;;;;;;;;;;6291010;28;20429;-61
2024/01/01 11:36:09;;;;;;;32.00;8.23;;;;;;;;;;6292772;28;20052;-61
2024/01/01 11:39:10;;;;;;;29.52;8.70;;;;;;;;;;6287397;28;20401;-61
2024/01/01 11:42:18;;;;;;;32.65;11.23;;;;;;;;;;6289900;28;20051;-60
2024/01/01 11:45:20;;;;;;;33.30;11.25;;;;;;;;;;6290821;28;20052;-60
2024/01/01 11:48:20;;;;;;;32.40;10.57;;;;;;;;;;6291655;28;20483;-61
2024/01/01 11:51:21;;;;;;;38.15;13.45;;;;;;;;;;6288761;28;20044;-61
2024/01/01 11:54:26;;;;;;;36.53;12.00;;;;;;;;;;6288483;28;20045;-61
2024/01/01 11:57:27;;;;;;;45.70;15.55;;;;;;;;;;6291011;28;20082;-61
2024/01/01 12:00:28;;;;;;;41.72;12.07;;;;;;;;;;6289751;28;20045;-61
2024/01/01 12:03:29;;;;;;;43.72;13.10;;;;;;;;;;6291412;28;20055;-60
2024/01/01 12:06:30;;;;;;;37.60;11.68;;;;;;;;;;6287368;28;20064;-61
2024/01/01 12:09:31;;;;;;;43.65;15.23;;;;;;;;;;6290341;28;20579;-61
2024/01/01 12:12:42;;;;;;;46.53;12.48;;;;;;;;;;6289565;28;20052;-61
2024/01/01 12:15:42;;;;;;;45.55;14.82;;;;;;;;;;6289682;28;20048;-61
2024/01/01 12:18:43;;;;;;;44.45;15.75;;;;;;;;;;6288938;28;20542;-62
2024/01/01 12:21:45;;;;;;;50.13;16.83;;;;;;;;;;6287411;28;20045;-61
2024/01/01 12:24:56;;;;;;;53.38;17.38;;;;;;;;;;6288939;28;20040;-60
2024/01/01 12:28:03;;;;;;;61.78;21.05;;;;;;;;;;6290188;28;20044;-60
2024/01/01 12:31:04;;;;;;;70.80;28.88;;;;;;;;;;6287501;28;20079;-61
2024/01/01 12:34:07;;;;;;;55.90;19.52;;;;;;;;;;6290196;28;20039;-61
2024/01/01 12:37:08;;;;;;;67.50;23.92;;;;;;;;;;6290722;28;20510;-61
2024/01/01 12:40:09;;;;;;;47.03;17.55;;;;;;;;;;6289559;28;20045;-63
2024/01/01 12:43:10;;;;;;;59.47;21.25;;;;;;;;;;6287571;28;20078;-61
2024/01/01 12:46:13;;;;;;;64.05;22.13;;;;;;;;;;6289798;28;20889;-60
2024/01/01 12:49:13;;;;;;;61.08;19.80;;;;;;;;;;6291902;28;20060;-61
2024/01/01 12:52:15;;;;;;;56.55;20.45;;;;;;;;;;6285581;28;20040;-61
2024/01/01 12:55:17;;;;;;;62.38;20.48;;;;;;;;;;6290076;28;20405;-61
2024/01/01 12:58:18;;;;;;;;;;;;;;;;;;6289283;28;20086;-60
2024/01/01 13:01:19;;;;;;;63.60;20.60;;;;;;;;;;6286519;28;20386;-60
2024/01/01 13:04:20;;;;;;;83.70;27.67;;;;;;;;;;6288210;28;20070;-61
2024/01/01 13:07:21;;;;;;;70.00;22.58;;;;;;;;;;6289481;28;20048;-60
2024/01/01 13:10:22;;;;;;;89.78;30.70;;;;;;;;;;6288958;28;20074;-61
2024/01/01 13:13:23;;;;;;;60.05;20.88;;;;;;;;;;6287105;28;20041;-61
2024/01/01 13:16:23;;;;;;;59.83;20.05;;;;;;;;;;6289642;28;20048;-61
2024/01/01 13:19:26;;;;;;;67.22;22.77;;;;;;;;;;6290086;28;20056;-60
2024/01/01 13:22:27;;;;;;;77.38;23.50;;;;;;;;;;6288057;28;20044;-60
2024/01/01 13:25:28;;;;;;;63.88;22.80;;;;;;;;;;6289268;28;20102;-61
2024/01/01 13:28:30;;;;;;;69.68;24.23;;;;;;;;;;6287171;28;20052;-61
2024/01/01 13:31:30;;;;;;;63.23;21.33;;;;;;;;;;6287297;28;20041;-60
2024/01/01 13:34:31;;;;;;;63.60;21.25;;;;;;;;;;6288556;28;20299;-60
2024/01/01 13:37:31;;;;;;;68.57;22.30;;;;;;;;;;6289075;28;20599;-60
2024/01/01 13:40:33;;;;;;;60.65;19.90;;;;;;;;;;6289041;28;20044;-62
2024/01/01 13:43:36;;;;;;;69.15;21.25;;;;;;;;;;6287905;28;20503;-61
2024/01/01 13:46:39;;;;;;;66.07;23.45;;;;;;;;;;6287806;28;20049;-60
2024/01/01 13:49:39;;;;;;;66.68;23.73;;;;;;;;;;6289065;28;20063;-61
2024/01/01 13:52:45;;;;;;;68.78;22.95;;;;;;;;;;6287024;28;20044;-61
2024/01/01 13:55:46;;;;;;;67.85;21.73;;;;;;;;;;6288705;28;20412;-60
2024/01/01 13:58:49;;;;;;;72.15;22.88;;;;;;;;;;6288208;28;20044;-59
2024/01/01 14:01:51;;;;;;;73.53;24.23;;;;;;;;;;6287037;28;20056;-60
2024/01/01 14:04:53;;;;;;;66.60;21.73;;;;;;;;;;6288346;28;20053;-62
2024/01/01 14:07:54;;;;;;;72.00;22.67;;;;;;;;;;6289465;28;20102;-60
2024/01/01 14:10:54;;;;;;;71.13;22.60;;;;;;;;;;6287330;28;20053;-60
2024/01/01 14:13:55;;;;;;;85.05;25.73;;;;;;;;;;6285275;28;20151;-60
2024/01/01 14:16:56;;;;;;;71.60;22.33;;;;;;;;;;6289253;28;20120;-60
2024/01/01 14:19:58;;;;;;;88.45;27.95;;;;;;;;;;6287339;28;20056;-60
2024/01/01 14:22:58;;;;;;;92.15;34.05;;;;;;;;;;6287210;28;20051;-60
2024/01/01 14:25:59;;;;;;;152.60;61.38;;;;;;;;;;6288604;28;20049;-61
2024/01/01 14:29:00;;;;;;;124.22;45.80;;;;;;;;;;6286137;28;20084;-61
2024/01/01 14:32:01;;;;;;;103.53;34.30;;;;;;;;;;6287151;28;20045;-61
2024/01/01 14:35:02;;;;;;;87.22;30.80;;;;;;;;;;6285294;28;20045;-61
2024/01/01 14:38:02;;;;;;;91.20;28.55;;;;;;;;;;6288546;28;20051;-61
2024/01/01 14:41:03;;;;;;;84.93;26.77;;;;;;;;;;6288230;28;20060;-61
2024/01/01 14:44:04;;;;;;;92.88;27.38;;;;;;;;;;6287358;28;20391;-60
2024/01/01 14:47:06;;;;;;;80.80;26.13;;;;;;;;;;6299445;28;20047;-61
2024/01/01 14:50:09;;;;;;;93.68;27.08;;;;;;;;;;6311307;28;20070;-60
2024/01/01 14:53:10;;;;;;;83.05;27.50;;;;;;;;;;6309107;28;20410;-61
2024/01/01 14:56:11;;;;;;;88.18;27.25;;;;;;;;;;6311566;28;20048;-60
2024/01/01 14:59:12;;;;;;;108.90;31.92;;;;;;;;;;6303971;28;20143;-61
2024/01/01 15:02:13;;;;;;;112.68;33.13;;;;;;;;;;6310422;28;20040;-61
2024/01/01 15:05:14;;;;;;;97.75;29.50;;;;;;;;;;6314989;28;20140;-62
2024/01/01 15:08:14;;;;;;;94.03;29.73;;;;;;;;;;6315458;28;20044;-61
2024/01/01 15:11:15;;;;;;;87.63;28.13;;;;;;;;;;6313770;28;20040;-61
2024/01/01 15:14:16;;;;;;;105.95;29.60;;;;;;;;;;6296387;28;20090;-61
2024/01/01 15:17:17;;;;;;;116.72;31.95;;;;;;;;;;6308649;28;20072;-61
2024/01/01 15:20:18;;;;;;;103.10;28.73;;;;;;;;;;6302214;28;20063;-61
2024/01/01 15:23:20;;;;;;;100.88;28.17;;;;;;;;;;6307293;28;20067;-61
2024/01/01 15:26:21;;;;;;;96.60;29.55;;;;;;;;;;6293178;28;20102;-60
2024/01/01 15:29:22;;;;;;;97.15;28.35;;;;;;;;;;6295242;28;20148;-60
2024/01/01 15:32:23;;;;;;;103.68;28.42;;;;;;;;;;6265460;28;20045;-61
2024/01/01 15:35:23;;;;;;;117.72;37.33;;;;;;;;;;6270871;28;20496;-62
2024/01/01 15:38:24;;;;;;;105.50;31.17;;;;;;;;;;6272031;28;20064;-60
2024/01/01 15:41:25;;;;;;;96.63;29.85;;;;;;;;;;6268913;28;20068;-60
2024/01/01 15:44:26;;;;;;;106.63;32.05;;;;;;;;;;6266927;28;20750;-61
2024/01/01 15:47:29;;;;;;;100.72;31.30;;;;;;;;;;6267690;28;20088;-60
2024/01/01 15:50:30;;;;;;;95.32;29.88;;;;;;;;;;6272452;28;20072;-60
2024/01/01 15:53:31;;;;;;;106.32;29.10;;;;;;;;;;6267087;28;20063;-60
2024/01/01 15:56:31;;;;;;;98.40;26.33;;;;;;;;;;6270431;28;20061;-60
2024/01/01 15:59:32;;;;;;;102.55;28.15;;;;;;;;;;6275198;28;20145;-61
2024/01/01 16:02:33;;;;;;;105.03;31.38;;;;;;;;;;6269066;28;20060;-60
2024/01/01 16:05:34;;;;;;;99.50;29.08;;;;;;;;;;6271155;28;20057;-63
2024/01/01 16:08:34;;;;;;;104.00;29.60;;;;;;;;;;6269599;28;20057;-61
2024/01/01 16:11:35;;;;;;;106.80;30.23;;;;;;;;;;6269097;28;20045;-63
2024/01/01 16:14:36;;;;;;;110.70;31.48;;;;;;;;;;6270529;28;20049;-61
2024/01/01 16:17:37;;;;;;;234.43;58.58;;;;;;;;;;6272279;28;20164;-61
2024/01/01 16:20:37;;;;;;;215.45;49.45;;;;;;;;;;6267662;28;20049;-62
2024/01/01 16:23:39;;;;;;;132.45;43.38;;;;;;;;;;6266058;28;20129;-61
2024/01/01 16:26:39;;;;;;;120.40;37.33;;;;;;;;;;6271456;28;20140;-61
2024/01/01 16:29:40;;;;;;;190.18;70.38;;;;;;;;;;6271526;28;20502;-61
2024/01/01 16:32:41;;;;;;;145.00;48.97;;;;;;;;;;6266712;28;20056;-61
2024/01/01 16:35:43;;;;;;;123.10;40.42;;;;;;;;;;6270703;28;20052;-61
2024/01/01 16:38:45;;;;;;;;;;;;;;;;;;6267143;28;20134;-62
2024/01/01 16:41:46;;;;;;;124.80;36.97;;;;;;;;;;6267235;28;19956;-61
2024/01/01 16:44:47;;;;;;;119.13;34.20;;;;;;;;;;6267990;28;20041;-61
2024/01/01 16:47:49;;;;;;;131.17;35.40;;;;;;;;;;6270974;28;20131;-61
2024/01/01 16:50:50;;;;;;;133.85;38.72;;;;;;;;;;6266563;28;20073;-61
2024/01/01 16:53:51;;;;;;;123.80;35.03;;;;;;;;;;6267310;28;20311;-62
2024/01/01 16:56:51;;;;;;;116.28;34.03;;;;;;;;;;6278711;28;20170;-61
2024/01/01 16:59:52;;;;;;;110.68;31.67;;;;;;;;;;6271369;28;20049;-61
2024/01/01 17:02:53;;;;;;;120.25;34.88;;;;;;;;;;6267136;28;20070;-62
2024/01/01 17:05:55;;;;;;;117.10;32.85;;;;;;;;;;6270856;28;20187;-61
2024/01/01 17:08:56;;;;;;;108.75;30.27;;;;;;;;;;6265401;28;20049;-64
2024/01/01 17:11:56;;;;;;;106.95;31.70;;;;;;;;;;6266120;28;20049;-63
2024/01/01 17:14:57;;;;;;;128.13;30.45;;;;;;;;;;6263846;28;20049;-64
2024/01/01 17:17:58;;;;;;;122.00;29.83;;;;;;;;;;6269385;28;20052;-63
2024/01/01 17:20:59;;;;;;;109.18;31.15;;;;;;;;;;6261004;28;20052;-62
2024/01/01 17:24:00;;;;;;;98.00;29.50;;;;;;;;;;6266044;28;20166;-62
2024/01/01 17:27:01;;;;;;;107.22;32.05;;;;;;;;;;6275766;28;20500;-62
2024/01/01 17:30:02;;;;;;;113.72;29.73;;;;;;;;;;6264729;28;20053;-62
2024/01/01 17:33:03;;;;;;;109.33;31.40;;;;;;;;;;6255898;28;20051;-62